createdAt,value
2023-02-13T00:00:03.446Z,4.47
2023-02-13T00:01:05.266Z,4.47
2023-02-13T00:02:06.956Z,4.46
2023-02-13T00:03:08.755Z,4.46
2023-02-13T00:04:10.372Z,4.45
2023-02-13T00:05:12.121Z,4.44
2023-02-13T00:06:13.840Z,4.44
2023-02-13T00:07:15.700Z,4.44
2023-02-13T00:08:17.311Z,4.43
2023-02-13T00:09:19.047Z,4.42
2023-02-13T00:10:20.772Z,4.41
2023-02-13T00:11:22.497Z,4.4
2023-02-13T00:12:24.327Z,4.39
2023-02-13T00:13:25.990Z,4.39
2023-02-13T00:14:27.697Z,4.38
2023-02-13T00:15:29.490Z,4.37
2023-02-13T00:16:31.219Z,4.36
2023-02-13T00:17:32.913Z,4.35
2023-02-13T00:18:34.641Z,4.34
2023-02-13T00:19:36.369Z,4.33
2023-02-13T00:20:38.120Z,4.34
2023-02-13T00:21:39.843Z,4.34
2023-02-13T00:22:41.584Z,4.32
2023-02-13T00:23:43.326Z,4.31
2023-02-13T00:24:45.042Z,4.31
2023-02-13T00:25:46.773Z,4.3
2023-02-13T00:26:48.519Z,4.29
2023-02-13T00:27:50.247Z,4.28
2023-02-13T00:28:51.988Z,4.27
2023-02-13T00:29:53.739Z,4.27
2023-02-13T00:30:56.136Z,4.27
2023-02-13T00:31:57.307Z,4.27
2023-02-13T00:32:58.935Z,4.27
2023-02-13T00:34:00.642Z,4.27
2023-02-13T00:35:02.381Z,4.25
2023-02-13T00:36:04.123Z,4.24
2023-02-13T00:37:05.844Z,4.23
2023-02-13T00:38:07.579Z,4.22
2023-02-13T00:39:09.323Z,4.2
2023-02-13T00:40:11.062Z,4.19
2023-02-13T00:41:12.787Z,4.18
2023-02-13T00:42:14.515Z,4.16
2023-02-13T00:43:16.269Z,4.14
2023-02-13T00:44:17.984Z,4.12
2023-02-13T00:45:19.713Z,4.11
2023-02-13T00:46:21.502Z,4.09
2023-02-13T00:47:23.193Z,4.08
2023-02-13T00:48:24.916Z,4.07
2023-02-13T00:49:26.649Z,4.05
2023-02-13T00:50:28.399Z,4.03
2023-02-13T00:51:30.115Z,4.03
2023-02-13T00:52:31.884Z,4.02
2023-02-13T00:53:33.599Z,4.01
2023-02-13T00:54:35.323Z,4
2023-02-13T00:55:37.073Z,4.02
2023-02-13T00:56:38.821Z,4.03
2023-02-13T00:57:40.532Z,4.02
2023-02-13T00:58:42.317Z,4.02
2023-02-13T00:59:43.996Z,4.02
2023-02-13T01:00:45.712Z,4.03
2023-02-13T01:01:47.534Z,4.03
2023-02-13T01:02:49.183Z,4.03
2023-02-13T01:03:50.949Z,4.04
2023-02-13T01:04:52.660Z,4.03
2023-02-13T01:05:54.396Z,4.04
2023-02-13T01:06:56.125Z,4.04
2023-02-13T01:07:57.851Z,4.04
2023-02-13T01:08:59.610Z,4.04
2023-02-13T01:10:01.330Z,4.03
2023-02-13T01:11:03.073Z,4.02
2023-02-13T01:12:04.803Z,4.01
2023-02-13T01:13:06.539Z,4.01
2023-02-13T01:14:08.277Z,3.99
2023-02-13T01:15:10.006Z,3.99
2023-02-13T01:16:11.862Z,3.97
2023-02-13T01:17:13.691Z,3.96
2023-02-13T01:18:15.218Z,3.95
2023-02-13T01:19:16.957Z,3.94
2023-02-13T01:20:18.663Z,3.93
2023-02-13T01:21:20.428Z,3.93
2023-02-13T01:22:22.153Z,3.93
2023-02-13T01:23:23.874Z,3.92
2023-02-13T01:24:25.631Z,3.92
2023-02-13T01:25:27.350Z,3.92
2023-02-13T01:26:29.073Z,3.91
2023-02-13T01:27:30.832Z,3.89
2023-02-13T01:28:32.590Z,3.88
2023-02-13T01:29:34.281Z,3.87
2023-02-13T01:30:36.022Z,3.85
2023-02-13T01:31:37.875Z,3.84
2023-02-13T01:32:39.480Z,3.82
2023-02-13T01:33:41.214Z,3.81
2023-02-13T01:34:42.970Z,3.82
2023-02-13T01:35:44.694Z,3.8
2023-02-13T01:36:46.426Z,3.8
2023-02-13T01:37:48.151Z,3.8
2023-02-13T01:38:49.877Z,3.8
2023-02-13T01:39:51.623Z,3.79
2023-02-13T01:40:53.360Z,3.78
2023-02-13T01:41:55.082Z,3.78
2023-02-13T01:42:56.841Z,3.78
2023-02-13T01:43:58.573Z,3.77
2023-02-13T01:45:00.283Z,3.78
2023-02-13T01:46:02.018Z,3.77
2023-02-13T01:47:03.781Z,3.76
2023-02-13T01:48:06.018Z,3.75
2023-02-13T01:49:07.237Z,3.74
2023-02-13T01:50:08.953Z,3.75
2023-02-13T01:51:10.706Z,3.72
2023-02-13T01:52:12.444Z,3.73
2023-02-13T01:53:14.159Z,3.71
2023-02-13T01:54:15.925Z,3.71
2023-02-13T01:55:17.642Z,3.69
2023-02-13T01:56:19.467Z,3.69
2023-02-13T01:57:21.099Z,3.69
2023-02-13T01:58:22.840Z,3.69
2023-02-13T01:59:24.563Z,3.7
2023-02-13T02:00:26.296Z,3.69
2023-02-13T02:01:28.172Z,3.69
2023-02-13T02:02:29.807Z,3.69
2023-02-13T02:03:31.493Z,3.69
2023-02-13T02:04:33.239Z,3.69
2023-02-13T02:05:34.975Z,3.69
2023-02-13T02:06:36.721Z,3.68
2023-02-13T02:07:38.446Z,3.67
2023-02-13T02:08:40.187Z,3.68
2023-02-13T02:09:41.938Z,3.68
2023-02-13T02:10:43.651Z,3.68
2023-02-13T02:11:45.424Z,3.68
2023-02-13T02:12:47.130Z,3.66
2023-02-13T02:13:48.877Z,3.65
2023-02-13T02:14:50.604Z,3.65
2023-02-13T02:15:52.393Z,3.63
2023-02-13T02:16:54.047Z,3.63
2023-02-13T02:17:55.810Z,3.61
2023-02-13T02:18:57.545Z,3.6
2023-02-13T02:19:59.245Z,3.58
2023-02-13T02:21:00.991Z,3.57
2023-02-13T02:22:02.745Z,3.54
2023-02-13T02:23:04.464Z,3.53
2023-02-13T02:24:06.188Z,3.51
2023-02-13T02:25:07.929Z,3.5
2023-02-13T02:26:09.648Z,3.49
2023-02-13T02:27:11.396Z,3.48
2023-02-13T02:28:13.158Z,3.46
2023-02-13T02:29:14.886Z,3.44
2023-02-13T02:30:16.599Z,3.42
2023-02-13T02:31:18.449Z,3.41
2023-02-13T02:32:20.091Z,3.39
2023-02-13T02:33:21.812Z,3.37
2023-02-13T02:34:23.538Z,3.35
2023-02-13T02:35:25.334Z,3.35
2023-02-13T02:36:26.984Z,3.32
2023-02-13T02:37:28.749Z,3.31
2023-02-13T02:38:30.485Z,3.27
2023-02-13T02:39:32.232Z,3.26
2023-02-13T02:40:33.961Z,3.25
2023-02-13T02:41:35.662Z,3.23
2023-02-13T02:42:37.395Z,3.22
2023-02-13T02:43:39.156Z,3.21
2023-02-13T02:44:40.861Z,3.18
2023-02-13T02:45:42.617Z,3.16
2023-02-13T02:46:44.361Z,3.14
2023-02-13T02:47:46.086Z,3.13
2023-02-13T02:48:47.802Z,3.1
2023-02-13T02:49:49.555Z,3.08
2023-02-13T02:50:51.272Z,3.05
2023-02-13T02:51:53.027Z,3.04
2023-02-13T02:52:54.748Z,3.02
2023-02-13T02:53:56.474Z,3.01
2023-02-13T02:54:58.276Z,3
2023-02-13T02:55:59.931Z,2.98
2023-02-13T02:57:01.677Z,2.96
2023-02-13T02:58:03.433Z,2.94
2023-02-13T02:59:05.125Z,2.92
2023-02-13T03:00:06.894Z,2.91
2023-02-13T03:01:08.752Z,2.91
2023-02-13T03:02:10.351Z,2.88
2023-02-13T03:03:12.076Z,2.87
2023-02-13T03:04:13.898Z,2.85
2023-02-13T03:05:15.540Z,2.84
2023-02-13T03:06:17.263Z,2.82
2023-02-13T03:07:19.033Z,2.82
2023-02-13T03:08:20.729Z,2.8
2023-02-13T03:09:22.486Z,2.79
2023-02-13T03:10:24.207Z,2.78
2023-02-13T03:11:25.911Z,2.77
2023-02-13T03:12:27.664Z,2.76
2023-02-13T03:13:29.401Z,2.76
2023-02-13T03:14:31.092Z,2.75
2023-02-13T03:15:32.839Z,2.76
2023-02-13T03:16:34.610Z,2.75
2023-02-13T03:17:36.421Z,2.74
2023-02-13T03:18:37.989Z,2.72
2023-02-13T03:19:39.718Z,2.71
2023-02-13T03:20:41.455Z,2.69
2023-02-13T03:21:43.294Z,2.67
2023-02-13T03:22:44.932Z,2.64
2023-02-13T03:23:46.611Z,2.62
2023-02-13T03:24:48.339Z,2.59
2023-02-13T03:25:50.083Z,2.57
2023-02-13T03:26:51.812Z,2.55
2023-02-13T03:27:53.523Z,2.53
2023-02-13T03:28:55.221Z,2.52
2023-02-13T03:29:56.952Z,2.52
2023-02-13T03:30:59.143Z,2.5
2023-02-13T03:32:00.496Z,2.48
2023-02-13T03:33:02.159Z,2.46
2023-02-13T03:34:03.872Z,2.45
2023-02-13T03:35:05.605Z,2.43
2023-02-13T03:36:07.357Z,2.42
2023-02-13T03:37:09.083Z,2.4
2023-02-13T03:38:10.811Z,2.39
2023-02-13T03:39:12.504Z,2.37
2023-02-13T03:40:14.363Z,2.35
2023-02-13T03:41:16.015Z,2.34
2023-02-13T03:42:17.835Z,2.33
2023-02-13T03:43:19.436Z,2.32
2023-02-13T03:44:21.173Z,2.32
2023-02-13T03:45:22.899Z,2.33
2023-02-13T03:46:24.638Z,2.34
2023-02-13T03:47:26.394Z,2.33
2023-02-13T03:48:28.103Z,2.33
2023-02-13T03:49:29.842Z,2.32
2023-02-13T03:50:31.561Z,2.33
2023-02-13T03:51:33.305Z,2.32
2023-02-13T03:52:35.034Z,2.31
2023-02-13T03:53:36.777Z,2.29
2023-02-13T03:54:38.511Z,2.28
2023-02-13T03:55:40.248Z,2.27
2023-02-13T03:56:41.999Z,2.26
2023-02-13T03:57:43.720Z,2.25
2023-02-13T03:58:45.445Z,2.24
2023-02-13T03:59:47.169Z,2.23
2023-02-13T04:00:48.946Z,2.21
2023-02-13T04:01:50.705Z,2.2
2023-02-13T04:02:52.372Z,2.18
2023-02-13T04:03:54.107Z,2.17
2023-02-13T04:04:55.845Z,2.16
2023-02-13T04:05:57.594Z,2.16
2023-02-13T04:06:59.318Z,2.16
2023-02-13T04:08:01.051Z,2.15
2023-02-13T04:09:02.799Z,2.16
2023-02-13T04:10:04.513Z,2.17
2023-02-13T04:11:06.243Z,2.17
2023-02-13T04:12:07.979Z,2.17
2023-02-13T04:13:09.696Z,2.18
2023-02-13T04:14:11.440Z,2.17
2023-02-13T04:15:13.185Z,2.17
2023-02-13T04:16:14.942Z,2.17
2023-02-13T04:17:16.634Z,2.16
2023-02-13T04:18:18.365Z,2.18
2023-02-13T04:19:20.108Z,2.17
2023-02-13T04:20:21.835Z,2.18
2023-02-13T04:21:23.561Z,2.19
2023-02-13T04:22:25.327Z,2.19
2023-02-13T04:23:27.267Z,2.19
2023-02-13T04:24:28.782Z,2.2
2023-02-13T04:25:30.543Z,2.19
2023-02-13T04:26:32.269Z,2.2
2023-02-13T04:27:33.989Z,2.19
2023-02-13T04:28:35.791Z,2.2
2023-02-13T04:29:37.463Z,2.21
2023-02-13T04:30:39.369Z,2.2
2023-02-13T04:31:41.037Z,2.21
2023-02-13T04:32:42.662Z,2.21
2023-02-13T04:33:44.381Z,2.23
2023-02-13T04:34:46.162Z,2.21
2023-02-13T04:35:47.863Z,2.21
2023-02-13T04:36:49.603Z,2.21
2023-02-13T04:37:51.345Z,2.21
2023-02-13T04:38:53.064Z,2.22
2023-02-13T04:39:54.818Z,2.23
2023-02-13T04:40:56.853Z,2.23
2023-02-13T04:41:58.260Z,2.23
2023-02-13T04:42:59.998Z,2.23
2023-02-13T04:44:01.750Z,2.23
2023-02-13T04:45:03.458Z,2.23
2023-02-13T04:46:05.253Z,2.22
2023-02-13T04:47:06.936Z,2.22
2023-02-13T04:48:08.684Z,2.21
2023-02-13T04:49:10.447Z,2.21
2023-02-13T04:50:12.146Z,2.21
2023-02-13T04:51:13.890Z,2.22
2023-02-13T04:52:15.655Z,2.22
2023-02-13T04:53:17.501Z,2.22
2023-02-13T04:54:19.053Z,2.22
2023-02-13T04:55:20.825Z,2.23
2023-02-13T04:56:22.556Z,2.21
2023-02-13T04:57:24.266Z,2.23
2023-02-13T04:58:26.016Z,2.22
2023-02-13T04:59:27.723Z,2.21
2023-02-13T05:00:29.463Z,2.19
2023-02-13T05:01:31.367Z,2.21
2023-02-13T05:02:32.957Z,2.2
2023-02-13T05:03:34.659Z,2.22
2023-02-13T05:04:36.479Z,2.26
2023-02-13T05:05:38.120Z,2.27
2023-02-13T05:06:39.885Z,2.29
2023-02-13T05:07:41.649Z,2.3
2023-02-13T05:08:43.356Z,2.32
2023-02-13T05:09:45.074Z,2.34
2023-02-13T05:10:46.798Z,2.34
2023-02-13T05:11:48.560Z,2.37
2023-02-13T05:12:50.316Z,2.37
2023-02-13T05:13:51.992Z,2.36
2023-02-13T05:14:53.733Z,2.37
2023-02-13T05:15:55.544Z,2.37
2023-02-13T05:16:57.247Z,2.38
2023-02-13T05:17:58.955Z,2.38
2023-02-13T05:19:00.690Z,2.37
2023-02-13T05:20:02.422Z,2.36
2023-02-13T05:21:04.135Z,2.33
2023-02-13T05:22:05.899Z,2.33
2023-02-13T05:23:07.663Z,2.31
2023-02-13T05:24:09.370Z,2.3
2023-02-13T05:25:11.087Z,2.29
2023-02-13T05:26:12.826Z,2.27
2023-02-13T05:27:14.557Z,2.26
2023-02-13T05:28:16.315Z,2.26
2023-02-13T05:29:18.003Z,2.24
2023-02-13T05:30:19.736Z,2.22
2023-02-13T05:31:21.600Z,2.2
2023-02-13T05:32:23.241Z,2.19
2023-02-13T05:33:24.948Z,2.16
2023-02-13T05:34:26.701Z,2.14
2023-02-13T05:35:28.428Z,2.11
2023-02-13T05:36:30.145Z,2.09
2023-02-13T05:37:31.924Z,2.06
2023-02-13T05:38:33.634Z,2.04
2023-02-13T05:39:35.352Z,2.01
2023-02-13T05:40:37.083Z,1.97
2023-02-13T05:41:38.820Z,1.95
2023-02-13T05:42:40.653Z,1.93
2023-02-13T05:43:42.294Z,1.9
2023-02-13T05:44:44.041Z,1.88
2023-02-13T05:45:45.754Z,1.84
2023-02-13T05:46:47.497Z,1.83
2023-02-13T05:47:49.226Z,1.81
2023-02-13T05:48:50.947Z,1.78
2023-02-13T05:49:52.697Z,1.77
2023-02-13T05:50:54.786Z,1.73
2023-02-13T05:51:56.201Z,1.73
2023-02-13T05:52:57.934Z,1.7
2023-02-13T05:53:59.669Z,1.68
2023-02-13T05:55:01.402Z,1.66
2023-02-13T05:56:03.205Z,1.65
2023-02-13T05:57:04.855Z,1.63
2023-02-13T05:58:06.717Z,1.63
2023-02-13T05:59:08.303Z,1.6
2023-02-13T06:00:10.038Z,1.6
2023-02-13T06:01:11.787Z,1.59
2023-02-13T06:02:13.537Z,1.57
2023-02-13T06:03:15.263Z,1.56
2023-02-13T06:04:17.020Z,1.56
2023-02-13T06:05:18.709Z,1.56
2023-02-13T06:06:20.419Z,1.54
2023-02-13T06:07:22.200Z,1.53
2023-02-13T06:08:23.926Z,1.51
2023-02-13T06:09:25.633Z,1.49
2023-02-13T06:10:27.385Z,1.49
2023-02-13T06:11:29.106Z,1.49
2023-02-13T06:12:30.853Z,1.5
2023-02-13T06:13:32.610Z,1.49
2023-02-13T06:14:34.324Z,1.49
2023-02-13T06:15:36.032Z,1.48
2023-02-13T06:16:37.756Z,1.48
2023-02-13T06:17:39.551Z,1.47
2023-02-13T06:18:41.246Z,1.48
2023-02-13T06:19:42.976Z,1.48
2023-02-13T06:20:44.729Z,1.48
2023-02-13T06:21:46.440Z,1.47
2023-02-13T06:22:48.195Z,1.46
2023-02-13T06:23:49.887Z,1.45
2023-02-13T06:24:51.622Z,1.46
2023-02-13T06:25:53.378Z,1.46
2023-02-13T06:26:55.114Z,1.45
2023-02-13T06:27:56.837Z,1.46
2023-02-13T06:28:58.570Z,1.46
2023-02-13T06:30:00.333Z,1.46
2023-02-13T06:31:02.554Z,1.49
2023-02-13T06:32:03.862Z,1.48
2023-02-13T06:33:05.509Z,1.49
2023-02-13T06:34:07.255Z,1.49
2023-02-13T06:35:08.986Z,1.49
2023-02-13T06:36:10.701Z,1.49
2023-02-13T06:37:12.462Z,1.5
2023-02-13T06:38:14.153Z,1.5
2023-02-13T06:39:15.922Z,1.52
2023-02-13T06:40:17.665Z,1.53
2023-02-13T06:41:19.389Z,1.55
2023-02-13T06:42:21.129Z,1.55
2023-02-13T06:43:22.838Z,1.57
2023-02-13T06:44:24.590Z,1.58
2023-02-13T06:45:26.319Z,1.61
2023-02-13T06:46:28.069Z,1.63
2023-02-13T06:47:29.788Z,1.66
2023-02-13T06:48:31.533Z,1.7
2023-02-13T06:49:33.235Z,1.72
2023-02-13T06:50:34.994Z,1.75
2023-02-13T06:51:36.702Z,1.8
2023-02-13T06:52:38.463Z,1.83
2023-02-13T06:53:40.172Z,1.85
2023-02-13T06:54:47.791Z,1.89
2023-02-13T06:55:43.754Z,1.94
2023-02-13T06:56:45.383Z,1.98
2023-02-13T06:57:47.121Z,2.02
2023-02-13T06:58:48.858Z,2.05
2023-02-13T06:59:50.581Z,2.07
2023-02-13T07:00:52.392Z,2.1
2023-02-13T07:01:54.064Z,2.13
2023-02-13T07:02:55.899Z,2.16
2023-02-13T07:03:57.536Z,2.18
2023-02-13T07:04:59.262Z,2.2
2023-02-13T07:06:00.986Z,2.21
2023-02-13T07:07:02.753Z,2.23
2023-02-13T07:08:04.470Z,2.25
2023-02-13T07:09:06.193Z,2.27
2023-02-13T07:10:07.904Z,2.3
2023-02-13T07:11:09.885Z,2.33
2023-02-13T07:12:11.402Z,2.34
2023-02-13T07:13:13.136Z,2.37
2023-02-13T07:14:14.867Z,2.41
2023-02-13T07:15:16.596Z,2.42
2023-02-13T07:16:18.393Z,2.46
2023-02-13T07:17:20.057Z,2.48
2023-02-13T07:18:21.866Z,2.51
2023-02-13T07:19:23.693Z,2.54
2023-02-13T07:20:25.282Z,2.57
2023-02-13T07:21:27.013Z,2.61
2023-02-13T07:22:28.746Z,2.63
2023-02-13T07:23:30.476Z,2.66
2023-02-13T07:24:32.221Z,2.68
2023-02-13T07:25:33.951Z,2.73
2023-02-13T07:26:35.671Z,2.76
2023-02-13T07:27:37.413Z,2.78
2023-02-13T07:28:39.164Z,2.81
2023-02-13T07:29:40.862Z,2.84
2023-02-13T07:30:42.661Z,2.88
2023-02-13T07:31:44.449Z,2.91
2023-02-13T07:32:46.081Z,2.99
2023-02-13T07:33:47.815Z,3.12
2023-02-13T07:35:01.272Z,3.28
2023-02-13T07:35:51.282Z,3.39
2023-02-13T07:36:53.033Z,3.52
2023-02-13T07:37:54.755Z,3.62
2023-02-13T07:38:56.497Z,3.71
2023-02-13T07:39:58.223Z,3.81
2023-02-13T07:40:59.961Z,3.9
2023-02-13T07:42:01.681Z,4
2023-02-13T07:43:03.402Z,4.08
2023-02-13T07:44:05.165Z,4.16
2023-02-13T07:45:06.890Z,4.24
2023-02-13T07:46:08.634Z,4.33
2023-02-13T07:47:10.492Z,4.43
2023-02-13T07:48:12.071Z,4.53
2023-02-13T07:49:13.828Z,4.57
2023-02-13T07:50:15.566Z,4.66
2023-02-13T07:51:17.310Z,4.72
2023-02-13T07:52:19.034Z,4.78
2023-02-13T07:53:20.768Z,4.83
2023-02-13T07:54:22.490Z,4.89
2023-02-13T07:55:24.255Z,4.89
2023-02-13T07:56:25.991Z,4.98
2023-02-13T07:57:27.692Z,5.02
2023-02-13T07:58:29.417Z,5.07
2023-02-13T07:59:31.135Z,5.12
2023-02-13T08:00:32.904Z,5.16
2023-02-13T08:01:34.682Z,5.24
2023-02-13T08:02:36.384Z,5.26
2023-02-13T08:03:38.182Z,5.3
2023-02-13T08:04:39.847Z,5.32
2023-02-13T08:05:41.556Z,5.41
2023-02-13T08:06:43.321Z,5.49
2023-02-13T08:07:45.049Z,5.57
2023-02-13T08:08:46.744Z,5.66
2023-02-13T08:09:48.512Z,5.74
2023-02-13T08:10:50.239Z,5.81
2023-02-13T08:11:51.984Z,5.91
2023-02-13T08:12:53.711Z,5.99
2023-02-13T08:13:55.437Z,6.05
2023-02-13T08:14:57.156Z,6.17
2023-02-13T08:15:59.214Z,6.25
2023-02-13T08:17:00.666Z,6.21
2023-02-13T08:18:02.372Z,6.29
2023-02-13T08:19:04.113Z,6.36
2023-02-13T08:20:05.830Z,6.33
2023-02-13T08:21:07.557Z,6.31
2023-02-13T08:22:09.288Z,6.4
2023-02-13T08:23:11.045Z,6.48
2023-02-13T08:24:12.708Z,6.55
2023-02-13T08:25:14.474Z,6.62
2023-02-13T08:26:16.153Z,6.71
2023-02-13T08:27:17.920Z,6.74
2023-02-13T08:28:19.708Z,6.75
2023-02-13T08:29:21.393Z,6.8
2023-02-13T08:30:23.114Z,6.9
2023-02-13T08:31:25.027Z,6.98
2023-02-13T08:32:26.580Z,6.92
2023-02-13T08:33:28.329Z,6.98
2023-02-13T08:34:30.058Z,7.03
2023-02-13T08:35:31.807Z,7.09
2023-02-13T08:36:33.504Z,7.12
2023-02-13T08:37:35.253Z,7.21
2023-02-13T08:38:36.980Z,7.12
2023-02-13T08:39:38.727Z,7.18
2023-02-13T08:40:40.465Z,7.26
2023-02-13T08:41:42.200Z,7.27
2023-02-13T08:42:43.971Z,7.35
2023-02-13T08:43:45.663Z,7.44
2023-02-13T08:44:47.385Z,7.48
2023-02-13T08:45:49.215Z,7.48
2023-02-13T08:46:50.859Z,7.55
2023-02-13T08:47:52.684Z,7.62
2023-02-13T08:48:54.344Z,7.67
2023-02-13T08:49:56.071Z,7.68
2023-02-13T08:50:57.797Z,7.71
2023-02-13T08:51:59.540Z,7.78
2023-02-13T08:53:01.257Z,7.69
2023-02-13T08:54:03.002Z,7.71
2023-02-13T08:55:04.723Z,7.63
2023-02-13T08:56:06.488Z,7.7
2023-02-13T08:57:08.200Z,7.73
2023-02-13T08:58:09.935Z,7.83
2023-02-13T08:59:11.692Z,7.89
2023-02-13T09:00:13.403Z,7.96
2023-02-13T09:01:15.155Z,8.05
2023-02-13T09:02:16.904Z,8.17
2023-02-13T09:03:18.695Z,8.26
2023-02-13T09:04:20.330Z,8.31
2023-02-13T09:05:22.068Z,8.33
2023-02-13T09:06:23.810Z,8.46
2023-02-13T09:07:25.546Z,8.53
2023-02-13T09:08:27.273Z,8.52
2023-02-13T09:09:29.031Z,8.54
2023-02-13T09:10:30.812Z,8.58
2023-02-13T09:11:32.507Z,8.59
2023-02-13T09:12:34.220Z,8.61
2023-02-13T09:13:35.926Z,8.62
2023-02-13T09:14:37.681Z,8.66
2023-02-13T09:15:39.402Z,8.61
2023-02-13T09:16:41.173Z,8.58
2023-02-13T09:17:42.879Z,8.58
2023-02-13T09:18:44.592Z,8.57
2023-02-13T09:19:46.341Z,8.57
2023-02-13T09:20:48.092Z,8.58
2023-02-13T09:21:49.868Z,8.61
2023-02-13T09:22:51.540Z,8.64
2023-02-13T09:23:53.273Z,8.63
2023-02-13T09:24:55.010Z,8.64
2023-02-13T09:25:57.112Z,8.63
2023-02-13T09:26:58.507Z,8.64
2023-02-13T09:28:00.329Z,8.61
2023-02-13T09:29:01.942Z,8.56
2023-02-13T09:30:03.678Z,8.59
2023-02-13T09:31:05.631Z,8.58
2023-02-13T09:32:07.299Z,8.59
2023-02-13T09:33:08.882Z,8.58
2023-02-13T09:34:10.634Z,8.62
2023-02-13T09:35:12.355Z,8.68
2023-02-13T09:36:14.063Z,8.73
2023-02-13T09:37:15.820Z,8.8
2023-02-13T09:38:17.580Z,8.83
2023-02-13T09:39:19.288Z,8.89
2023-02-13T09:40:21.029Z,8.91
2023-02-13T09:41:22.750Z,8.96
2023-02-13T09:42:24.509Z,8.97
2023-02-13T09:43:26.205Z,8.97
2023-02-13T09:44:27.957Z,9.06
2023-02-13T09:45:29.701Z,9.12
2023-02-13T09:46:31.512Z,9.16
2023-02-13T09:47:33.177Z,9.21
2023-02-13T09:48:34.916Z,9.3
2023-02-13T09:49:36.635Z,9.29
2023-02-13T09:50:38.372Z,9.21
2023-02-13T09:51:40.114Z,9.31
2023-02-13T09:52:41.846Z,9.34
2023-02-13T09:53:43.586Z,9.43
2023-02-13T09:54:45.290Z,9.38
2023-02-13T09:55:47.045Z,9.48
2023-02-13T09:56:48.773Z,9.54
2023-02-13T09:57:50.511Z,9.58
2023-02-13T09:58:52.241Z,9.72
2023-02-13T09:59:53.973Z,9.81
2023-02-13T10:00:55.748Z,9.81
2023-02-13T10:01:57.510Z,9.93
2023-02-13T10:02:59.235Z,10.04
2023-02-13T10:04:00.887Z,10.15
2023-02-13T10:05:02.743Z,10.23
2023-02-13T10:06:04.471Z,10.35
2023-02-13T10:07:06.157Z,10.41
2023-02-13T10:08:07.853Z,10.59
2023-02-13T10:09:09.595Z,10.7
2023-02-13T10:10:11.290Z,10.87
2023-02-13T10:11:13.055Z,10.9
2023-02-13T10:12:14.795Z,11.01
2023-02-13T10:13:16.516Z,11.17
2023-02-13T10:14:18.244Z,11.25
2023-02-13T10:15:20.015Z,11.33
2023-02-13T10:16:22.000Z,11.4
2023-02-13T10:17:23.486Z,11.38
2023-02-13T10:18:25.319Z,11.47
2023-02-13T10:19:26.915Z,11.56
2023-02-13T10:20:28.650Z,11.55
2023-02-13T10:21:30.398Z,11.51
2023-02-13T10:22:32.136Z,11.57
2023-02-13T10:23:33.870Z,11.62
2023-02-13T10:24:35.596Z,11.49
2023-02-13T10:25:37.347Z,11.42
2023-02-13T10:26:39.054Z,11.46
2023-02-13T10:27:40.812Z,11.5
2023-02-13T10:28:42.706Z,11.38
2023-02-13T10:29:44.267Z,11.42
2023-02-13T10:30:46.120Z,11.42
2023-02-13T10:31:47.840Z,11.41
2023-02-13T10:32:49.517Z,11.44
2023-02-13T10:33:51.220Z,11.41
2023-02-13T10:34:52.947Z,11.42
2023-02-13T10:35:54.839Z,11.48
2023-02-13T10:36:56.429Z,11.51
2023-02-13T10:37:58.157Z,11.56
2023-02-13T10:38:59.881Z,11.51
2023-02-13T10:40:01.649Z,11.6
2023-02-13T10:41:03.350Z,11.69
2023-02-13T10:42:05.107Z,11.63
2023-02-13T10:43:06.798Z,11.72
2023-02-13T10:44:08.567Z,11.72
2023-02-13T10:45:10.308Z,11.81
2023-02-13T10:46:12.037Z,11.75
2023-02-13T10:47:13.757Z,11.75
2023-02-13T10:48:15.511Z,11.91
2023-02-13T10:49:17.217Z,11.97
2023-02-13T10:50:19.093Z,12.05
2023-02-13T10:51:20.705Z,12.18
2023-02-13T10:52:22.431Z,12.32
2023-02-13T10:53:24.143Z,12.41
2023-02-13T10:54:25.876Z,12.54
2023-02-13T10:55:27.620Z,12.7
2023-02-13T10:56:29.447Z,12.84
2023-02-13T10:57:31.096Z,12.99
2023-02-13T10:58:32.857Z,13.06
2023-02-13T10:59:34.593Z,13.18
2023-02-13T11:00:36.310Z,13.26
2023-02-13T11:01:38.082Z,13.42
2023-02-13T11:02:39.769Z,13.6
2023-02-13T11:03:41.514Z,13.78
2023-02-13T11:04:43.336Z,13.74
2023-02-13T11:05:44.974Z,13.92
2023-02-13T11:06:46.710Z,14.04
2023-02-13T11:07:48.444Z,14.14
2023-02-13T11:08:50.143Z,14.21
2023-02-13T11:09:51.887Z,14.32
2023-02-13T11:10:53.645Z,14.44
2023-02-13T11:11:55.361Z,14.52
2023-02-13T11:12:57.228Z,14.63
2023-02-13T11:13:58.825Z,14.66
2023-02-13T11:15:00.556Z,14.7
2023-02-13T11:16:02.723Z,14.71
2023-02-13T11:17:04.053Z,14.48
2023-02-13T11:18:05.768Z,14.48
2023-02-13T11:19:07.495Z,14.4
2023-02-13T11:20:09.226Z,14.27
2023-02-13T11:21:10.977Z,14.09
2023-02-13T11:22:12.722Z,14
2023-02-13T11:23:14.469Z,13.92
2023-02-13T11:24:16.184Z,13.76
2023-02-13T11:25:17.926Z,13.65
2023-02-13T11:26:19.634Z,13.6
2023-02-13T11:27:22.287Z,13.56
2023-02-13T11:28:23.127Z,13.42
2023-02-13T11:29:24.854Z,13.31
2023-02-13T11:30:26.588Z,13.2
2023-02-13T11:31:28.472Z,13.03
2023-02-13T11:32:30.209Z,12.86
2023-02-13T11:33:31.794Z,12.85
2023-02-13T11:34:33.524Z,12.85
2023-02-13T11:35:35.245Z,12.75
2023-02-13T11:36:37.032Z,12.73
2023-02-13T11:37:38.723Z,12.61
2023-02-13T11:38:40.473Z,12.52
2023-02-13T11:39:42.202Z,12.48
2023-02-13T11:40:43.932Z,12.34
2023-02-13T11:41:45.652Z,12.22
2023-02-13T11:42:47.425Z,12.17
2023-02-13T11:43:49.145Z,12.09
2023-02-13T11:44:50.879Z,12.06
2023-02-13T11:45:52.583Z,12.07
2023-02-13T11:46:54.353Z,12.06
2023-02-13T11:47:56.063Z,12.11
2023-02-13T11:48:57.821Z,12.09
2023-02-13T11:49:59.701Z,12.12
2023-02-13T11:51:01.249Z,12.14
2023-02-13T11:52:03.008Z,12.14
2023-02-13T11:53:04.741Z,12.09
2023-02-13T11:54:06.478Z,11.99
2023-02-13T11:55:08.205Z,12.01
2023-02-13T11:56:09.927Z,11.95
2023-02-13T11:57:11.654Z,11.83
2023-02-13T11:58:13.543Z,11.81
2023-02-13T11:59:15.156Z,11.7
2023-02-13T12:00:16.880Z,11.6
2023-02-13T12:01:18.619Z,11.54
2023-02-13T12:02:20.461Z,11.48
2023-02-13T12:03:22.290Z,11.22
2023-02-13T12:04:23.818Z,11.19
2023-02-13T12:05:25.554Z,11.19
2023-02-13T12:06:27.280Z,11.14
2023-02-13T12:07:29.038Z,11.12
2023-02-13T12:08:30.770Z,11.08
2023-02-13T12:09:32.490Z,11.03
2023-02-13T12:10:34.218Z,10.98
2023-02-13T12:11:35.982Z,10.9
2023-02-13T12:12:37.710Z,10.86
2023-02-13T12:13:39.440Z,10.81
2023-02-13T12:14:41.160Z,10.79
2023-02-13T12:15:42.919Z,10.75
2023-02-13T12:16:44.661Z,10.73
2023-02-13T12:17:46.369Z,10.68
2023-02-13T12:18:48.097Z,10.64
2023-02-13T12:19:49.820Z,10.63
2023-02-13T12:20:51.577Z,10.6
2023-02-13T12:21:53.296Z,10.52
2023-02-13T12:22:55.029Z,10.43
2023-02-13T12:23:56.768Z,10.44
2023-02-13T12:24:58.505Z,10.42
2023-02-13T12:26:00.753Z,10.38
2023-02-13T12:27:01.967Z,10.33
2023-02-13T12:28:03.804Z,10.29
2023-02-13T12:29:05.533Z,10.27
2023-02-13T12:30:07.238Z,10.28
2023-02-13T12:31:08.934Z,10.27
2023-02-13T12:32:10.632Z,10.3
2023-02-13T12:33:12.387Z,10.25
2023-02-13T12:34:14.097Z,10.28
2023-02-13T12:35:15.862Z,10.3
2023-02-13T12:36:17.581Z,10.3
2023-02-13T12:37:19.293Z,10.3
2023-02-13T12:38:21.027Z,10.31
2023-02-13T12:39:22.786Z,10.3
2023-02-13T12:40:24.517Z,10.31
2023-02-13T12:41:26.247Z,10.29
2023-02-13T12:42:27.984Z,10.29
2023-02-13T12:43:29.705Z,10.26
2023-02-13T12:44:31.469Z,10.24
2023-02-13T12:45:33.249Z,10.26
2023-02-13T12:46:34.913Z,10.24
2023-02-13T12:47:36.634Z,10.25
2023-02-13T12:48:38.379Z,10.25
2023-02-13T12:49:40.116Z,10.23
2023-02-13T12:50:41.851Z,10.26
2023-02-13T12:51:43.609Z,10.27
2023-02-13T12:52:45.334Z,10.27
2023-02-13T12:53:47.088Z,10.29
2023-02-13T12:54:48.810Z,10.26
2023-02-13T12:55:50.549Z,10.26
2023-02-13T12:56:52.250Z,10.27
2023-02-13T12:57:54.011Z,10.29
2023-02-13T12:58:55.747Z,10.29
2023-02-13T12:59:57.474Z,10.28
2023-02-13T13:00:59.390Z,10.3
2023-02-13T13:02:01.128Z,10.31
2023-02-13T13:03:02.672Z,10.34
2023-02-13T13:04:04.397Z,10.35
2023-02-13T13:05:06.153Z,10.35
2023-02-13T13:06:12.387Z,10.36
2023-02-13T13:07:09.576Z,10.39
2023-02-13T13:08:11.329Z,10.38
2023-02-13T13:09:13.071Z,10.39
2023-02-13T13:10:14.787Z,10.4
2023-02-13T13:11:16.565Z,10.4
2023-02-13T13:12:18.280Z,10.39
2023-02-13T13:13:20.043Z,10.41
2023-02-13T13:14:21.748Z,10.42
2023-02-13T13:15:23.630Z,10.43
2023-02-13T13:16:25.268Z,10.42
2023-02-13T13:17:26.942Z,10.44
2023-02-13T13:18:28.670Z,10.45
2023-02-13T13:19:30.416Z,10.42
2023-02-13T13:20:32.138Z,10.42
2023-02-13T13:21:33.879Z,10.41
2023-02-13T13:22:35.606Z,10.42
2023-02-13T13:23:37.390Z,10.4
2023-02-13T13:24:39.090Z,10.37
2023-02-13T13:25:40.839Z,10.38
2023-02-13T13:26:42.580Z,10.37
2023-02-13T13:27:44.357Z,10.37
2023-02-13T13:28:46.062Z,10.38
2023-02-13T13:29:47.797Z,10.37
2023-02-13T13:30:49.543Z,10.37
2023-02-13T13:31:51.485Z,10.38
2023-02-13T13:32:53.016Z,10.38
2023-02-13T13:33:54.683Z,10.39
2023-02-13T13:34:56.450Z,10.41
2023-02-13T13:35:58.146Z,10.42
2023-02-13T13:36:59.910Z,10.43